Terminal Aerodrome Forecast
Issued by NWS

Current Version | Previous Version | Text Only | Print | Product List | Glossary On
Versions: 1 2 3 4 5 6 7 8 9 10 11 12 13 14 15 16 17 18 19 20 21 22 23 24 25 26
000
FTUS45 KRIW 191720
TAFPNA
TAF
KPNA 191720Z 1918/2018 15008G15KT P6SM OVC110
     FM200200 32012KT P6SM OVC070
     FM200800 31010KT P6SM VCSH OVC070
     FM201400 34011KT 5SM -SHRASN OVC025
      AMD LTD TO CLD VIS AND WIND=

USA.gov is the U.S. government's official web portal to all federal, state and local government web resources and services.